Time;durP1;ratioP1;P1;durP2;ratioP2;P2;SDS_P1;SDS_P2;PMS_P1;PMS_P2;Temp;Humidity;BMP_temperature;BMP_pressure;BME280_temperature;BME280_humidity;BME280_pressure;Samples;Min_cycle;Max_cycle;Signal;HPM_P1;HPM_P2
2023/06/11 00:00:26;;;;;;;;;12.75;8.75;;;;;;;;4957855;28;45490;-70
2023/06/11 00:02:56;;;;;;;;;10.75;9.25;;;;;;;;4949900;28;45369;-70
2023/06/11 00:05:22;;;;;;;;;10.75;8.50;;;;;;;;4948542;28;45539;-70
2023/06/11 00:07:48;;;;;;;;;9.75;9.75;;;;;;;;4953686;28;45762;-70
2023/06/11 00:10:14;;;;;;;;;9.00;9.00;;;;;;;;4941212;28;45781;-70
2023/06/11 00:12:39;;;;;;;;;9.25;9.25;;;;;;;;4948143;28;45384;-69
2023/06/11 00:15:04;;;;;;;;;12.00;10.75;;;;;;;;4948264;28;46648;-70
2023/06/11 00:17:32;;;;;;;;;11.50;10.00;;;;;;;;4952878;28;45408;-70
2023/06/11 00:19:58;;;;;;;;;11.00;8.50;;;;;;;;4940402;28;45496;-70
2023/06/11 00:22:26;;;;;;;;;12.25;9.75;;;;;;;;4950256;28;45377;-70
2023/06/11 00:24:52;;;;;;;;;8.00;8.00;;;;;;;;4947087;28;46466;-70
2023/06/11 00:27:17;;;;;;;;;8.00;8.00;;;;;;;;4943686;28;45462;-70
2023/06/11 00:29:42;;;;;;;;;9.00;9.00;;;;;;;;4953273;28;45435;-70
2023/06/11 00:32:07;;;;;;;;;7.00;7.00;;;;;;;;4941084;28;45366;-70
2023/06/11 00:34:33;;;;;;;;;6.00;6.00;;;;;;;;4948969;28;45365;-70
2023/06/11 00:36:59;;;;;;;;;6.00;6.00;;;;;;;;4947745;28;45560;-70
2023/06/11 00:39:24;;;;;;;;;8.75;8.00;;;;;;;;4942356;28;45434;-70
2023/06/11 00:41:51;;;;;;;;;8.25;7.00;;;;;;;;4949499;28;45559;-69
2023/06/11 00:44:21;;;;;;;;;8.00;7.00;;;;;;;;4951153;28;46642;-70
2023/06/11 00:46:47;;;;;;;;;8.25;6.25;;;;;;;;4946129;28;45520;-70
2023/06/11 00:49:13;;;;;;;;;3.00;3.00;;;;;;;;4952417;28;45441;-70
2023/06/11 00:51:41;;;;;;;;;5.50;4.25;;;;;;;;4940301;28;45535;-70
2023/06/11 00:54:07;;;;;;;;;4.75;4.75;;;;;;;;4940412;28;45564;-70
2023/06/11 00:56:33;;;;;;;;;5.75;4.75;;;;;;;;4947693;28;45516;-69
2023/06/11 00:58:59;;;;;;;;;5.50;5.50;;;;;;;;4946882;28;45469;-70
2023/06/11 01:01:29;;;;;;;;;4.50;4.50;;;;;;;;4961330;28;45351;-69
2023/06/11 01:03:56;;;;;;;;;5.75;5.50;;;;;;;;4942503;28;45521;-69
2023/06/11 01:06:22;;;;;;;;;7.00;5.75;;;;;;;;4950286;28;45389;-69
2023/06/11 01:08:53;;;;;;;;;6.50;6.50;;;;;;;;4944605;28;45412;-69
2023/06/11 01:11:21;;;;;;;;;4.00;4.00;;;;;;;;4942355;28;45434;-69
2023/06/11 01:13:46;;;;;;;;;6.25;5.00;;;;;;;;4952541;28;45493;-69
2023/06/11 01:16:14;;;;;;;;;3.25;3.25;;;;;;;;4940720;28;45449;-69
2023/06/11 01:18:53;;;;;;;;;4.50;4.50;;;;;;;;4946368;28;45322;-68
2023/06/11 01:21:23;;;;;;;;;4.75;4.25;;;;;;;;4949944;28;45429;-69
2023/06/11 01:24:09;;;;;;;;;5.50;5.50;;;;;;;;4937933;28;46520;-69
2023/06/11 01:26:42;;;;;;;;;5.00;5.00;;;;;;;;4943708;28;45381;-69
2023/06/11 01:29:08;;;;;;;;;4.50;4.00;;;;;;;;4953835;28;45446;-69
2023/06/11 01:31:37;;;;;;;;;4.00;4.00;;;;;;;;4955882;28;45322;-69
2023/06/11 01:34:03;;;;;;;;;4.50;4.50;;;;;;;;4939214;28;46518;-69
2023/06/11 01:36:29;;;;;;;;;7.25;6.75;;;;;;;;4951581;28;45452;-69
2023/06/11 01:38:58;;;;;;;;;6.00;4.75;;;;;;;;4945344;28;45439;-69
2023/06/11 01:41:23;;;;;;;;;6.00;5.00;;;;;;;;4948734;28;45377;-69
2023/06/11 01:43:48;;;;;;;;;6.00;4.50;;;;;;;;4951626;28;45467;-69
2023/06/11 01:46:14;;;;;;;;;7.00;5.25;;;;;;;;4940923;28;45398;-68
2023/06/11 01:48:39;;;;;;;;;5.25;5.25;;;;;;;;4951551;28;45582;-69
2023/06/11 01:51:06;;;;;;;;;4.50;4.50;;;;;;;;4943879;28;45428;-69
2023/06/11 01:53:32;;;;;;;;;5.25;4.50;;;;;;;;4951213;28;46644;-69
2023/06/11 01:55:58;;;;;;;;;4.25;4.25;;;;;;;;4952735;28;45396;-69
2023/06/11 01:58:23;;;;;;;;;5.25;5.25;;;;;;;;4941962;28;45443;-69
2023/06/11 02:00:48;;;;;;;;;5.25;3.75;;;;;;;;4951447;28;45457;-69
2023/06/11 02:03:16;;;;;;;;;8.25;6.75;;;;;;;;4942244;28;45645;-69
2023/06/11 02:05:42;;;;;;;;;4.50;3.50;;;;;;;;4952064;28;45410;-69
2023/06/11 02:08:08;;;;;;;;;5.00;4.75;;;;;;;;4940068;28;45498;-69
2023/06/11 02:10:33;;;;;;;;;5.00;4.50;;;;;;;;4947675;28;45399;-69
2023/06/11 02:12:58;;;;;;;;;6.00;5.00;;;;;;;;4946653;28;46604;-70
2023/06/11 02:15:23;;;;;;;;;4.75;4.00;;;;;;;;4941090;28;45345;-69
2023/06/11 02:17:49;;;;;;;;;6.00;4.75;;;;;;;;4951373;28;45457;-68
2023/06/11 02:20:15;;;;;;;;;6.00;4.50;;;;;;;;4940766;28;45478;-69
2023/06/11 02:22:40;;;;;;;;;6.50;5.50;;;;;;;;4949048;28;46978;-69
2023/06/11 02:25:05;;;;;;;;;6.50;5.00;;;;;;;;4950459;28;45366;-69
2023/06/11 02:27:31;;;;;;;;;4.75;4.75;;;;;;;;4943672;28;45387;-70
2023/06/11 02:29:56;;;;;;;;;4.75;4.00;;;;;;;;4954878;28;45560;-69
2023/06/11 02:32:21;;;;;;;;;8.25;5.25;;;;;;;;4944773;28;46231;-69
2023/06/11 02:34:47;;;;;;;;;5.25;4.75;;;;;;;;4949132;28;45439;-69
2023/06/11 02:37:12;;;;;;;;;3.75;3.75;;;;;;;;4961746;28;45380;-69
2023/06/11 02:39:37;;;;;;;;;4.25;3.00;;;;;;;;4942517;28;45399;-69
2023/06/11 02:42:02;;;;;;;;;3.75;3.75;;;;;;;;4953584;28;45497;-69
2023/06/11 02:44:28;;;;;;;;;6.25;5.75;;;;;;;;4951538;28;45370;-69
2023/06/11 02:46:53;;;;;;;;;4.75;4.75;;;;;;;;4948689;28;45417;-69
2023/06/11 02:49:20;;;;;;;;;6.00;6.00;;;;;;;;4944345;28;45478;-69
2023/06/11 02:51:45;;;;;;;;;5.00;5.00;;;;;;;;4954323;28;46370;-69
2023/06/11 02:54:10;;;;;;;;;5.00;5.00;;;;;;;;4941525;28;45454;-69
2023/06/11 02:56:36;;;;;;;;;6.50;6.50;;;;;;;;4954205;28;45406;-69
2023/06/11 02:59:01;;;;;;;;;5.25;5.25;;;;;;;;4947622;28;45429;-69
2023/06/11 03:01:27;;;;;;;;;5.75;5.75;;;;;;;;4952716;28;47781;-69
2023/06/11 03:03:52;;;;;;;;;4.50;4.50;;;;;;;;4941739;28;45863;-69
2023/06/11 03:06:17;;;;;;;;;4.75;4.75;;;;;;;;4953082;28;45359;-69
2023/06/11 03:08:42;;;;;;;;;6.00;5.00;;;;;;;;4954206;28;45609;-69
2023/06/11 03:11:08;;;;;;;;;4.25;3.50;;;;;;;;4945063;28;46318;-69
2023/06/11 03:13:33;;;;;;;;;6.00;5.00;;;;;;;;4953342;28;45410;-69
2023/06/11 03:15:58;;;;;;;;;4.50;4.00;;;;;;;;4941625;28;45423;-69
2023/06/11 03:18:23;;;;;;;;;7.00;7.00;;;;;;;;4951476;28;45453;-69
2023/06/11 03:20:49;;;;;;;;;7.25;7.25;;;;;;;;4947575;28;45607;-69
2023/06/11 03:23:14;;;;;;;;;9.00;8.00;;;;;;;;4944903;28;45429;-69
2023/06/11 03:25:40;;;;;;;;;6.25;6.25;;;;;;;;4952632;28;45482;-69
2023/06/11 03:28:05;;;;;;;;;7.75;7.75;;;;;;;;4941671;28;45466;-69
2023/06/11 03:30:31;;;;;;;;;10.00;8.75;;;;;;;;4958091;28;47799;-69
2023/06/11 03:32:57;;;;;;;;;13.00;12.75;;;;;;;;4947064;28;45445;-69
2023/06/11 03:35:22;;;;;;;;;17.00;14.00;;;;;;;;4956814;28;45579;-69
2023/06/11 03:37:47;;;;;;;;;11.50;11.50;;;;;;;;4952510;28;45509;-69
2023/06/11 03:40:12;;;;;;;;;12.50;11.50;;;;;;;;4942293;28;45532;-69
2023/06/11 03:42:38;;;;;;;;;15.25;14.50;;;;;;;;4951630;28;45476;-69
2023/06/11 03:45:03;;;;;;;;;16.50;15.00;;;;;;;;4944604;28;45467;-69
2023/06/11 03:47:28;;;;;;;;;11.25;10.50;;;;;;;;4952895;28;45405;-69
2023/06/11 03:49:53;;;;;;;;;15.25;13.00;;;;;;;;4955178;28;46006;-69
2023/06/11 03:52:19;;;;;;;;;11.75;11.75;;;;;;;;4942943;28;45393;-69
2023/06/11 03:54:44;;;;;;;;;16.75;12.75;;;;;;;;4948178;28;45448;-69
2023/06/11 03:57:12;;;;;;;;;10.25;10.25;;;;;;;;4950176;28;45485;-69
2023/06/11 03:59:37;;;;;;;;;14.00;12.25;;;;;;;;4941142;28;45530;-70
2023/06/11 04:02:02;;;;;;;;;14.00;11.75;;;;;;;;4953553;28;45504;-69
2023/06/11 04:04:27;;;;;;;;;11.50;10.25;;;;;;;;4943942;28;45347;-69
2023/06/11 04:06:53;;;;;;;;;12.00;10.00;;;;;;;;4947327;28;45583;-69
2023/06/11 04:09:18;;;;;;;;;12.00;11.50;;;;;;;;4950813;28;45453;-68
2023/06/11 04:11:43;;;;;;;;;13.75;11.00;;;;;;;;4940804;28;45462;-69
2023/06/11 04:14:08;;;;;;;;;9.50;9.50;;;;;;;;4952481;28;45306;-69
2023/06/11 04:16:33;;;;;;;;;11.50;11.50;;;;;;;;4944651;28;45594;-70
2023/06/11 04:18:59;;;;;;;;;8.25;8.25;;;;;;;;4946149;28;46553;-70
2023/06/11 04:21:24;;;;;;;;;11.25;10.25;;;;;;;;4951540;28;45355;-70
2023/06/11 04:23:50;;;;;;;;;11.00;10.25;;;;;;;;4940429;28;45427;-70
2023/06/11 04:26:20;;;;;;;;;9.25;8.75;;;;;;;;4951763;28;45482;-69
2023/06/11 04:28:48;;;;;;;;;16.50;14.00;;;;;;;;4945635;28;45524;-68
2023/06/11 04:31:14;;;;;;;;;14.50;13.50;;;;;;;;4944040;28;45318;-68
2023/06/11 04:33:40;;;;;;;;;15.00;15.00;;;;;;;;4953340;28;45465;-69
2023/06/11 04:36:09;;;;;;;;;12.00;12.00;;;;;;;;4939640;28;45441;-69
2023/06/11 04:38:36;;;;;;;;;11.50;11.50;;;;;;;;4948706;28;46023;-69
2023/06/11 04:41:02;;;;;;;;;9.75;8.75;;;;;;;;4946839;28;45452;-69
2023/06/11 04:43:27;;;;;;;;;10.25;10.25;;;;;;;;4952362;28;45248;-69
2023/06/11 04:45:56;;;;;;;;;11.00;9.50;;;;;;;;4939271;28;45377;-70
2023/06/11 04:48:22;;;;;;;;;11.75;8.75;;;;;;;;4951303;28;45907;-69
2023/06/11 04:50:48;;;;;;;;;4.75;4.50;;;;;;;;4947173;28;45453;-69
2023/06/11 04:53:22;;;;;;;;;10.75;10.75;;;;;;;;4939500;28;45369;-73
2023/06/11 04:55:54;;;;;;;;;14.25;9.00;;;;;;;;4944129;28;45516;-71
2023/06/11 04:58:21;;;;;;;;;10.25;8.50;;;;;;;;4942148;28;45385;-71
2023/06/11 05:00:47;;;;;;;;;13.25;13.25;;;;;;;;4947363;28;45346;-71
2023/06/11 05:03:12;;;;;;;;;10.00;10.00;;;;;;;;4947143;28;45557;-70
2023/06/11 05:05:38;;;;;;;;;10.50;9.75;;;;;;;;4940593;28;45465;-71
2023/06/11 05:08:03;;;;;;;;;13.00;11.25;;;;;;;;4952298;28;47353;-74
2023/06/11 05:10:28;;;;;;;;;13.25;11.50;;;;;;;;4943158;28;45400;-72
2023/06/11 05:12:53;;;;;;;;;13.00;11.75;;;;;;;;4953620;28;45452;-71
2023/06/11 05:15:19;;;;;;;;;13.00;12.75;;;;;;;;4956464;28;45310;-72
2023/06/11 05:17:45;;;;;;;;;8.75;8.75;;;;;;;;4956321;28;46545;-71
2023/06/11 05:20:11;;;;;;;;;8.00;8.00;;;;;;;;4956674;28;45410;-71
2023/06/11 05:22:36;;;;;;;;;9.50;9.50;;;;;;;;4956046;28;45492;-72
2023/06/11 05:25:01;;;;;;;;;10.50;10.50;;;;;;;;4955615;28;45588;-72
2023/06/11 05:27:29;;;;;;;;;12.00;12.00;;;;;;;;4956112;28;45434;-72
2023/06/11 05:29:54;;;;;;;;;9.50;9.00;;;;;;;;4962401;28;45316;-72
2023/06/11 05:32:19;;;;;;;;;10.50;8.25;;;;;;;;4976020;28;45478;-72
2023/06/11 05:34:44;;;;;;;;;9.50;9.00;;;;;;;;4975925;28;45325;-73
2023/06/11 05:37:10;;;;;;;;;11.00;10.00;;;;;;;;4975822;28;46094;-72
2023/06/11 05:39:35;;;;;;;;;8.75;8.75;;;;;;;;4974725;28;45442;-72
2023/06/11 05:42:00;;;;;;;;;10.75;9.50;;;;;;;;4969149;28;45511;-71
2023/06/11 05:44:25;;;;;;;;;12.00;10.75;;;;;;;;4955504;28;45480;-70
2023/06/11 05:46:51;;;;;;;;;9.75;9.75;;;;;;;;4954597;28;46632;-71
2023/06/11 05:49:16;;;;;;;;;13.00;11.50;;;;;;;;4956113;28;45389;-71
2023/06/11 05:51:41;;;;;;;;;11.25;11.25;;;;;;;;4955990;28;45679;-72
2023/06/11 05:54:07;;;;;;;;;11.75;10.50;;;;;;;;4955612;28;45536;-71
2023/06/11 05:56:32;;;;;;;;;5.75;5.75;;;;;;;;4955852;28;46143;-70
2023/06/11 05:58:58;;;;;;;;;13.25;10.25;;;;;;;;4956173;28;45425;-70
2023/06/11 06:01:23;;;;;;;;;11.75;10.75;;;;;;;;4956065;28;45452;-71
2023/06/11 06:03:48;;;;;;;;;10.25;10.25;;;;;;;;4956096;28;45463;-70
2023/06/11 06:06:13;;;;;;;;;11.50;10.25;;;;;;;;4955830;28;45381;-71
2023/06/11 06:08:39;;;;;;;;;11.75;11.50;;;;;;;;4955261;28;45662;-70
2023/06/11 06:11:04;;;;;;;;;10.50;10.50;;;;;;;;4956234;28;45497;-70
2023/06/11 06:13:29;;;;;;;;;10.50;8.25;;;;;;;;4956129;28;45413;-70
2023/06/11 06:15:54;;;;;;;;;10.50;10.50;;;;;;;;4955890;28;45659;-70
2023/06/11 06:18:20;;;;;;;;;13.75;11.50;;;;;;;;4955831;28;45365;-70
2023/06/11 06:20:46;;;;;;;;;13.50;12.50;;;;;;;;4955949;28;45481;-70
2023/06/11 06:23:11;;;;;;;;;11.00;10.25;;;;;;;;4954365;28;45417;-70
2023/06/11 06:25:37;;;;;;;;;12.25;12.25;;;;;;;;4954344;28;47004;-70
2023/06/11 06:28:03;;;;;;;;;10.00;10.00;;;;;;;;4955590;28;45393;-70
2023/06/11 06:30:28;;;;;;;;;14.25;13.00;;;;;;;;4955726;28;45220;-70
2023/06/11 06:32:53;;;;;;;;;11.25;11.25;;;;;;;;4955675;28;45145;-70
2023/06/11 06:35:19;;;;;;;;;14.25;12.50;;;;;;;;4955426;28;45519;-70
2023/06/11 06:37:44;;;;;;;;;12.75;12.50;;;;;;;;4955098;28;45381;-70
2023/06/11 06:40:12;;;;;;;;;15.50;12.75;;;;;;;;4954334;28;45474;-70
2023/06/11 06:42:37;;;;;;;;;13.50;12.00;;;;;;;;4944105;28;45596;-71
2023/06/11 06:45:02;;;;;;;;;12.00;9.75;;;;;;;;4936117;28;46314;-70
2023/06/11 06:47:27;;;;;;;;;17.50;13.75;;;;;;;;4934993;28;45454;-71
2023/06/11 06:49:52;;;;;;;;;12.75;12.75;;;;;;;;4936083;28;45413;-70
2023/06/11 06:52:18;;;;;;;;;14.25;12.75;;;;;;;;4938231;28;45354;-70
2023/06/11 06:54:43;;;;;;;;;14.75;13.00;;;;;;;;4955395;28;45386;-71
2023/06/11 06:57:09;;;;;;;;;17.50;15.50;;;;;;;;4955423;28;45338;-71
2023/06/11 06:59:34;;;;;;;;;16.50;15.50;;;;;;;;4954497;28;45316;-71
2023/06/11 07:02:00;;;;;;;;;18.75;18.25;;;;;;;;4955209;28;45494;-71
2023/06/11 07:04:25;;;;;;;;;13.00;13.00;;;;;;;;4954679;28;45769;-71
2023/06/11 07:06:50;;;;;;;;;16.00;15.00;;;;;;;;4955114;28;45483;-71
2023/06/11 07:09:16;;;;;;;;;16.75;15.75;;;;;;;;4958301;28;45436;-70
2023/06/11 07:11:41;;;;;;;;;21.00;18.25;;;;;;;;4958377;28;45823;-70
2023/06/11 07:14:07;;;;;;;;;20.25;19.25;;;;;;;;4958482;28;46412;-71
2023/06/11 07:16:32;;;;;;;;;16.25;15.25;;;;;;;;4958383;28;45587;-69
2023/06/11 07:18:58;;;;;;;;;15.25;15.25;;;;;;;;4958364;28;45361;-69
2023/06/11 07:21:23;;;;;;;;;17.75;17.50;;;;;;;;4958412;28;45476;-70
2023/06/11 07:23:48;;;;;;;;;16.75;14.75;;;;;;;;4956968;28;46335;-70
2023/06/11 07:26:15;;;;;;;;;17.50;15.00;;;;;;;;4958366;28;45399;-70
2023/06/11 07:28:41;;;;;;;;;16.50;15.25;;;;;;;;4958027;28;45575;-70
2023/06/11 07:31:06;;;;;;;;;15.50;15.50;;;;;;;;4958184;28;45443;-70
2023/06/11 07:33:31;;;;;;;;;13.75;13.50;;;;;;;;4956847;28;47133;-70
2023/06/11 07:35:56;;;;;;;;;13.50;13.50;;;;;;;;4957923;28;45432;-70
2023/06/11 07:38:22;;;;;;;;;13.75;12.75;;;;;;;;4958287;28;45414;-69
2023/06/11 07:40:47;;;;;;;;;18.25;16.00;;;;;;;;4957776;28;45310;-70
2023/06/11 07:43:12;;;;;;;;;15.25;14.25;;;;;;;;4941582;28;46013;-69
2023/06/11 07:45:37;;;;;;;;;13.00;13.00;;;;;;;;4938818;28;45385;-69
2023/06/11 07:48:02;;;;;;;;;15.00;13.50;;;;;;;;4938934;28;45368;-70
2023/06/11 07:50:28;;;;;;;;;15.50;15.50;;;;;;;;4938322;28;45365;-70
2023/06/11 07:52:53;;;;;;;;;15.00;15.00;;;;;;;;4945655;28;45388;-71
2023/06/11 07:55:18;;;;;;;;;15.25;15.25;;;;;;;;4957890;28;45427;-71
2023/06/11 07:57:43;;;;;;;;;14.25;13.25;;;;;;;;4958016;28;45389;-70
2023/06/11 08:00:12;;;;;;;;;17.75;17.00;;;;;;;;4958127;28;45568;-71
2023/06/11 08:02:41;;;;;;;;;14.50;13.25;;;;;;;;4957599;28;46533;-71
2023/06/11 08:05:07;;;;;;;;;12.25;12.25;;;;;;;;4957135;28;45334;-72
2023/06/11 08:07:32;;;;;;;;;16.25;15.50;;;;;;;;4956552;28;45434;-72
2023/06/11 08:09:57;;;;;;;;;18.75;17.00;;;;;;;;4957564;28;45457;-70
2023/06/11 08:12:22;;;;;;;;;13.25;13.25;;;;;;;;4956049;28;48293;-72
2023/06/11 08:14:48;;;;;;;;;13.25;12.00;;;;;;;;4957566;28;45374;-71
2023/06/11 08:17:13;;;;;;;;;15.25;14.25;;;;;;;;4957481;28;45399;-72
2023/06/11 08:19:38;;;;;;;;;13.25;9.50;;;;;;;;4956253;28;45399;-71
2023/06/11 08:22:04;;;;;;;;;12.25;10.75;;;;;;;;4957357;28;45637;-71
2023/06/11 08:24:30;;;;;;;;;14.75;12.75;;;;;;;;4957170;28;45467;-71
2023/06/11 08:26:56;;;;;;;;;10.25;10.00;;;;;;;;4957382;28;45374;-72
2023/06/11 08:29:21;;;;;;;;;11.00;11.00;;;;;;;;4957157;28;45426;-72
2023/06/11 08:31:46;;;;;;;;;11.50;11.50;;;;;;;;4955827;28;46264;-72
2023/06/11 08:34:12;;;;;;;;;14.75;12.00;;;;;;;;4956959;28;45450;-71
2023/06/11 08:36:38;;;;;;;;;11.75;11.00;;;;;;;;4957352;28;45506;-71
2023/06/11 08:39:03;;;;;;;;;15.25;11.75;;;;;;;;4957167;28;45587;-71
2023/06/11 08:41:29;;;;;;;;;14.25;12.50;;;;;;;;4954462;28;46731;-71
2023/06/11 08:43:54;;;;;;;;;12.75;11.75;;;;;;;;4937706;28;45307;-71
2023/06/11 08:46:21;;;;;;;;;12.50;12.50;;;;;;;;4957345;28;45452;-71
2023/06/11 08:48:51;;;;;;;;;17.25;11.75;;;;;;;;4956993;28;45440;-71
2023/06/11 08:51:17;;;;;;;;;11.00;11.00;;;;;;;;4956952;28;47284;-72
2023/06/11 08:53:42;;;;;;;;;10.00;10.00;;;;;;;;4957815;28;45406;-71
2023/06/11 08:56:08;;;;;;;;;16.00;11.75;;;;;;;;4962751;28;45274;-72
2023/06/11 08:58:34;;;;;;;;;13.25;12.00;;;;;;;;4962694;28;44855;-72
2023/06/11 09:01:09;;;;;;;;;12.75;11.50;;;;;;;;4962273;28;46495;-71
2023/06/11 09:03:35;;;;;;;;;11.50;11.50;;;;;;;;4959754;28;45362;-71
2023/06/11 09:06:01;;;;;;;;;12.75;12.75;;;;;;;;4960466;28;45354;-71
2023/06/11 09:08:26;;;;;;;;;14.00;12.75;;;;;;;;4960776;28;45369;-71
2023/06/11 09:10:51;;;;;;;;;15.50;12.00;;;;;;;;4961430;28;45298;-72
2023/06/11 09:13:17;;;;;;;;;17.25;13.00;;;;;;;;4961173;28;45445;-71
2023/06/11 09:15:45;;;;;;;;;14.00;13.00;;;;;;;;4961227;28;45405;-71
2023/06/11 09:18:11;;;;;;;;;15.00;15.00;;;;;;;;4963104;28;45564;-71
2023/06/11 09:20:36;;;;;;;;;15.50;14.00;;;;;;;;4961579;28;45368;-72
2023/06/11 09:23:01;;;;;;;;;13.75;13.75;;;;;;;;4956779;28;45434;-71
2023/06/11 09:25:30;;;;;;;;;15.75;15.25;;;;;;;;4956833;28;45455;-72
2023/06/11 09:28:04;;;;;;;;;19.00;16.25;;;;;;;;4956235;28;45487;-72
2023/06/11 09:30:29;;;;;;;;;15.00;15.00;;;;;;;;4955977;28;45639;-72
2023/06/11 09:32:54;;;;;;;;;17.50;16.75;;;;;;;;4956158;28;45398;-72
2023/06/11 09:35:20;;;;;;;;;15.00;14.75;;;;;;;;4956581;28;45558;-71
2023/06/11 09:37:46;;;;;;;;;17.00;16.25;;;;;;;;4955421;28;45529;-71
2023/06/11 09:40:14;;;;;;;;;21.50;20.00;;;;;;;;4956082;28;45659;-71
2023/06/11 09:42:40;;;;;;;;;19.50;18.50;;;;;;;;4944499;28;45483;-71
2023/06/11 09:45:10;;;;;;;;;21.75;18.00;;;;;;;;4945567;28;45493;-70
2023/06/11 09:47:36;;;;;;;;;22.50;19.25;;;;;;;;4955947;28;45294;-71
2023/06/11 09:50:02;;;;;;;;;18.00;17.00;;;;;;;;4955905;28;45669;-72
2023/06/11 09:52:28;;;;;;;;;17.00;15.50;;;;;;;;4955690;28;45426;-73
2023/06/11 09:54:53;;;;;;;;;20.25;20.00;;;;;;;;4955040;28;45343;-72
2023/06/11 09:57:20;;;;;;;;;21.25;20.25;;;;;;;;4955963;28;45469;-72
2023/06/11 09:59:45;;;;;;;;;22.00;21.25;;;;;;;;4956009;28;46841;-72
2023/06/11 10:02:11;;;;;;;;;20.25;19.25;;;;;;;;4955614;28;45322;-70
2023/06/11 10:04:37;;;;;;;;;19.50;19.50;;;;;;;;4956063;28;45345;-71
2023/06/11 10:07:04;;;;;;;;;21.50;20.00;;;;;;;;4955812;28;45615;-71
2023/06/11 10:09:30;;;;;;;;;24.25;19.25;;;;;;;;4955830;28;47300;-71
2023/06/11 10:11:55;;;;;;;;;18.75;17.50;;;;;;;;4955550;28;45600;-71
2023/06/11 10:14:22;;;;;;;;;17.25;17.00;;;;;;;;4956028;28;45318;-71
2023/06/11 10:16:48;;;;;;;;;19.00;17.50;;;;;;;;4954582;28;45602;-71
2023/06/11 10:19:14;;;;;;;;;20.25;18.00;;;;;;;;4955217;28;45452;-71
2023/06/11 10:21:44;;;;;;;;;21.75;19.25;;;;;;;;4955826;28;45437;-71
2023/06/11 10:24:28;;;;;;;;;27.50;21.25;;;;;;;;4956029;28;45346;-72
2023/06/11 10:27:12;;;;;;;;;21.50;21.50;;;;;;;;4956014;28;45421;-71
2023/06/11 10:29:37;;;;;;;;;19.75;19.75;;;;;;;;4955970;28;47144;-71
2023/06/11 10:32:03;;;;;;;;;24.00;20.50;;;;;;;;4956334;28;45424;-72
2023/06/11 10:34:37;;;;;;;;;24.50;22.00;;;;;;;;4957260;28;45263;-72
2023/06/11 10:37:03;;;;;;;;;26.25;21.75;;;;;;;;4956092;28;45385;-70
2023/06/11 10:39:28;;;;;;;;;19.00;19.00;;;;;;;;4955129;28;45562;-71
2023/06/11 10:42:00;;;;;;;;;25.25;25.25;;;;;;;;4949936;28;45450;-72
2023/06/11 10:44:26;;;;;;;;;31.00;27.75;;;;;;;;4942833;28;45427;-72
2023/06/11 10:46:51;;;;;;;;;25.50;22.50;;;;;;;;4958902;28;45395;-73
2023/06/11 10:49:20;;;;;;;;;39.00;34.00;;;;;;;;4958723;28;47562;-72
2023/06/11 10:51:46;;;;;;;;;22.75;22.75;;;;;;;;4958691;28;45338;-72
2023/06/11 10:54:22;;;;;;;;;21.75;20.25;;;;;;;;4958939;28;45335;-72
2023/06/11 10:56:47;;;;;;;;;21.50;20.25;;;;;;;;4958473;28;45307;-71
2023/06/11 10:59:13;;;;;;;;;20.00;19.75;;;;;;;;4958530;28;45568;-72
2023/06/11 11:01:38;;;;;;;;;24.00;20.50;;;;;;;;4958736;28;45389;-72
2023/06/11 11:04:03;;;;;;;;;24.75;23.00;;;;;;;;4958829;28;45425;-73
2023/06/11 11:06:29;;;;;;;;;22.25;21.25;;;;;;;;4958804;28;45375;-72
2023/06/11 11:08:55;;;;;;;;;21.25;18.75;;;;;;;;4957639;28;48147;-72
2023/06/11 11:11:21;;;;;;;;;22.25;21.75;;;;;;;;4958332;28;45489;-72
2023/06/11 11:13:46;;;;;;;;;25.00;21.00;;;;;;;;4958625;28;45394;-73
2023/06/11 11:16:11;;;;;;;;;27.50;26.25;;;;;;;;4958716;28;45553;-72
2023/06/11 11:18:37;;;;;;;;;26.75;23.00;;;;;;;;4958068;28;45409;-71
2023/06/11 11:21:02;;;;;;;;;25.75;23.75;;;;;;;;4958317;28;45393;-72
2023/06/11 11:23:30;;;;;;;;;21.00;20.75;;;;;;;;4958241;28;45399;-72
2023/06/11 11:25:55;;;;;;;;;24.00;21.25;;;;;;;;4958222;28;45211;-72
2023/06/11 11:28:21;;;;;;;;;21.50;19.50;;;;;;;;4957767;28;45439;-72
2023/06/11 11:30:46;;;;;;;;;18.50;18.00;;;;;;;;4958236;28;45362;-72
2023/06/11 11:33:11;;;;;;;;;24.50;21.25;;;;;;;;4958011;28;45302;-73
2023/06/11 11:35:50;;;;;;;;;27.25;22.75;;;;;;;;4958440;28;45319;-72
2023/06/11 11:38:15;;;;;;;;;21.50;20.75;;;;;;;;4957819;28;45556;-72
2023/06/11 11:40:40;;;;;;;;;18.75;18.75;;;;;;;;4957811;28;45378;-72
2023/06/11 11:43:05;;;;;;;;;18.00;18.00;;;;;;;;4942715;28;45461;-72
2023/06/11 11:45:32;;;;;;;;;19.00;15.50;;;;;;;;4938634;28;45468;-72
2023/06/11 11:47:57;;;;;;;;;21.00;21.00;;;;;;;;4938457;28;45452;-72
2023/06/11 11:50:25;;;;;;;;;18.50;18.50;;;;;;;;4957790;28;45399;-72
2023/06/11 11:52:58;;;;;;;;;22.00;19.50;;;;;;;;4958171;28;45183;-72
2023/06/11 11:55:23;;;;;;;;;20.25;20.00;;;;;;;;4956466;28;45521;-72
2023/06/11 11:57:50;;;;;;;;;18.75;17.50;;;;;;;;4957344;28;46504;-72
2023/06/11 12:00:23;;;;;;;;;22.50;21.25;;;;;;;;4958069;28;45580;-73
2023/06/11 12:02:48;;;;;;;;;23.25;21.00;;;;;;;;4956647;28;45470;-72
2023/06/11 12:05:14;;;;;;;;;20.75;19.50;;;;;;;;4957971;28;45521;-71
2023/06/11 12:07:39;;;;;;;;;18.00;18.00;;;;;;;;4958046;28;45449;-71
2023/06/11 12:10:04;;;;;;;;;18.50;17.25;;;;;;;;4957823;28;45336;-72
2023/06/11 12:12:29;;;;;;;;;23.00;20.00;;;;;;;;4957859;28;45382;-72
2023/06/11 12:14:55;;;;;;;;;17.75;17.25;;;;;;;;4958138;28;45286;-72
2023/06/11 12:17:20;;;;;;;;;17.50;17.50;;;;;;;;4958309;28;45502;-72
2023/06/11 12:19:45;;;;;;;;;20.50;18.00;;;;;;;;4957791;28;45315;-72
2023/06/11 12:22:10;;;;;;;;;17.50;17.25;;;;;;;;4957789;28;45302;-72
2023/06/11 12:24:36;;;;;;;;;24.50;21.75;;;;;;;;4957489;28;45250;-72
2023/06/11 12:27:02;;;;;;;;;28.00;26.00;;;;;;;;4957652;28;45540;-72
2023/06/11 12:29:27;;;;;;;;;19.50;19.50;;;;;;;;4957692;28;45496;-72
2023/06/11 12:31:53;;;;;;;;;20.25;19.25;;;;;;;;4958029;28;45459;-72
2023/06/11 12:34:18;;;;;;;;;24.50;20.75;;;;;;;;4957795;28;45433;-72
2023/06/11 12:36:44;;;;;;;;;26.75;23.50;;;;;;;;4957793;28;45450;-72
2023/06/11 12:39:10;;;;;;;;;16.50;15.75;;;;;;;;4957729;28;45417;-72
2023/06/11 12:41:35;;;;;;;;;20.50;19.75;;;;;;;;4957698;28;45442;-72
2023/06/11 12:44:00;;;;;;;;;20.00;20.00;;;;;;;;4956139;28;45533;-72
2023/06/11 12:46:29;;;;;;;;;19.50;19.00;;;;;;;;4957574;28;46250;-73
2023/06/11 12:48:54;;;;;;;;;28.75;26.75;;;;;;;;4957307;28;45496;-72
2023/06/11 12:51:20;;;;;;;;;24.75;23.75;;;;;;;;4956935;28;45445;-72
2023/06/11 12:53:45;;;;;;;;;26.75;24.75;;;;;;;;4956483;28;45346;-71
2023/06/11 12:56:11;;;;;;;;;27.25;26.50;;;;;;;;4956461;28;47451;-70
2023/06/11 12:58:36;;;;;;;;;22.25;22.25;;;;;;;;4956822;28;45440;-69
2023/06/11 13:01:02;;;;;;;;;26.00;26.00;;;;;;;;4957453;28;45374;-69
2023/06/11 13:03:27;;;;;;;;;31.50;28.50;;;;;;;;4956749;28;45395;-70
2023/06/11 13:05:52;;;;;;;;;33.50;31.25;;;;;;;;4955951;28;46238;-69
2023/06/11 13:08:17;;;;;;;;;37.75;33.25;;;;;;;;4956770;28;45480;-69
2023/06/11 13:10:44;;;;;;;;;36.25;31.50;;;;;;;;4955459;28;45521;-69
2023/06/11 13:13:09;;;;;;;;;29.50;28.25;;;;;;;;4956845;28;45399;-69
2023/06/11 13:15:35;;;;;;;;;33.50;31.50;;;;;;;;4956510;28;46650;-69
2023/06/11 13:18:00;;;;;;;;;46.50;36.75;;;;;;;;4956343;28;45415;-72
2023/06/11 13:20:26;;;;;;;;;40.00;35.75;;;;;;;;4956940;28;45503;-71
2023/06/11 13:22:51;;;;;;;;;33.75;32.25;;;;;;;;4956596;28;45353;-71
2023/06/11 13:25:16;;;;;;;;;40.00;35.25;;;;;;;;4956224;28;45444;-72
2023/06/11 13:27:41;;;;;;;;;39.50;33.25;;;;;;;;4956496;28;45452;-70
2023/06/11 13:30:09;;;;;;;;;52.25;40.75;;;;;;;;4956243;28;45434;-72
2023/06/11 13:32:35;;;;;;;;;48.75;41.75;;;;;;;;4956372;28;45385;-70
2023/06/11 13:35:00;;;;;;;;;58.50;46.50;;;;;;;;4956473;28;45726;-73
2023/06/11 13:44:16;;;;;;;;;;;;;;;;;;2054810;28;261077017;-80
2023/06/11 13:52:58;;;;;;;;;7.50;7.50;;;;;;;;2;243073460;243073460;-72
2023/06/11 14:01:13;;;;;;;;;5.50;5.50;;;;;;;;2;261083259;261083259;-70
2023/06/11 14:09:56;;;;;;;;;28.50;25.00;;;;;;;;2;243078886;243078886;-70
2023/06/11 14:18:11;;;;;;;;;71.00;57.50;;;;;;;;2;261079925;261079925;-72
2023/06/11 14:20:36;;;;;;;;;55.33;44.33;;;;;;;;564513;28;122969362;-73
2023/06/11 14:23:03;;;;;;;;;64.50;52.00;;;;;;;;4955381;28;46631;-72
2023/06/11 14:25:28;;;;;;;;;73.50;57.50;;;;;;;;4945799;28;45281;-72
2023/06/11 14:27:54;;;;;;;;;71.00;57.75;;;;;;;;4958470;28;45307;-72
2023/06/11 14:30:20;;;;;;;;;77.00;63.50;;;;;;;;4952188;28;45712;-72
2023/06/11 14:32:45;;;;;;;;;80.25;65.75;;;;;;;;4948389;28;45344;-72
2023/06/11 14:35:10;;;;;;;;;72.25;59.25;;;;;;;;4941795;28;45322;-72
2023/06/11 14:37:35;;;;;;;;;68.25;54.25;;;;;;;;4949412;28;45591;-72
2023/06/11 14:40:01;;;;;;;;;65.25;52.00;;;;;;;;4949609;28;46474;-72
2023/06/11 14:42:26;;;;;;;;;74.00;60.75;;;;;;;;4948416;28;45323;-71
2023/06/11 14:44:51;;;;;;;;;76.00;64.50;;;;;;;;4955721;28;45223;-71
2023/06/11 14:47:16;;;;;;;;;69.33;54.67;;;;;;;;4943776;28;45411;-70